sensor_id;sensor_type;location;lat;lon;timestamp;pressure;altitude;pressure_sealevel;temperature;humidity
59825;BME280;45703;50.898;6.054;2023-11-21T00:00:09;99591.28;;;7.93;100.00
59825;BME280;45703;50.898;6.054;2023-11-21T00:02:38;99595.97;;;7.91;100.00
59825;BME280;45703;50.898;6.054;2023-11-21T00:05:09;99597.84;;;7.90;100.00
59825;BME280;45703;50.898;6.054;2023-11-21T00:07:36;99600.03;;;7.93;100.00
59825;BME280;45703;50.898;6.054;2023-11-21T00:10:02;99609.06;;;7.92;100.00
59825;BME280;45703;50.898;6.054;2023-11-21T00:12:28;99613.56;;;7.92;100.00
59825;BME280;45703;50.898;6.054;2023-11-21T00:14:54;99620.91;;;7.90;100.00
59825;BME280;45703;50.898;6.054;2023-11-21T00:17:20;99622.53;;;7.91;100.00
59825;BME280;45703;50.898;6.054;2023-11-21T00:19:45;99603.63;;;7.81;100.00
59825;BME280;45703;50.898;6.054;2023-11-21T00:22:11;99621.53;;;7.92;100.00
59825;BME280;45703;50.898;6.054;2023-11-21T00:24:36;99619.28;;;7.89;100.00
59825;BME280;45703;50.898;6.054;2023-11-21T00:27:02;99621.34;;;7.87;100.00
59825;BME280;45703;50.898;6.054;2023-11-21T00:29:27;99624.19;;;7.92;100.00
59825;BME280;45703;50.898;6.054;2023-11-21T00:31:53;99618.06;;;7.91;100.00
59825;BME280;45703;50.898;6.054;2023-11-21T00:34:18;99613.97;;;7.89;100.00
59825;BME280;45703;50.898;6.054;2023-11-21T00:36:44;99614.38;;;7.92;100.00
59825;BME280;45703;50.898;6.054;2023-11-21T00:39:10;99617.84;;;7.93;100.00
59825;BME280;45703;50.898;6.054;2023-11-21T00:41:36;99625.38;;;7.96;100.00
59825;BME280;45703;50.898;6.054;2023-11-21T00:44:02;99618.88;;;7.92;100.00
59825;BME280;45703;50.898;6.054;2023-11-21T00:46:27;99623.75;;;7.95;100.00
59825;BME280;45703;50.898;6.054;2023-11-21T00:48:54;99639.72;;;7.95;100.00
59825;BME280;45703;50.898;6.054;2023-11-21T00:51:20;99639.13;;;7.93;100.00
59825;BME280;45703;50.898;6.054;2023-11-21T00:53:47;99631.56;;;7.90;100.00
59825;BME280;45703;50.898;6.054;2023-11-21T00:56:12;99637.25;;;7.93;100.00
59825;BME280;45703;50.898;6.054;2023-11-21T00:58:38;99642.81;;;7.92;100.00
59825;BME280;45703;50.898;6.054;2023-11-21T01:01:04;99643.81;;;7.91;100.00
59825;BME280;45703;50.898;6.054;2023-11-21T01:03:29;99653.19;;;7.93;100.00
59825;BME280;45703;50.898;6.054;2023-11-21T01:05:55;99648.72;;;7.94;100.00
59825;BME280;45703;50.898;6.054;2023-11-21T01:08:21;99650.78;;;7.92;100.00
59825;BME280;45703;50.898;6.054;2023-11-21T01:10:47;99643.81;;;7.91;100.00
59825;BME280;45703;50.898;6.054;2023-11-21T01:13:12;99654.22;;;7.92;100.00
59825;BME280;45703;50.898;6.054;2023-11-21T01:15:40;99649.13;;;7.91;100.00
59825;BME280;45703;50.898;6.054;2023-11-21T01:18:06;99649.75;;;7.93;100.00
59825;BME280;45703;50.898;6.054;2023-11-21T01:20:33;99650.34;;;7.95;100.00
59825;BME280;45703;50.898;6.054;2023-11-21T01:22:59;99646.66;;;7.96;100.00
59825;BME280;45703;50.898;6.054;2023-11-21T01:25:24;99649.91;;;7.98;100.00
59825;BME280;45703;50.898;6.054;2023-11-21T01:27:51;99647.69;;;7.95;100.00
59825;BME280;45703;50.898;6.054;2023-11-21T01:30:17;99653.94;;;8.00;100.00
59825;BME280;45703;50.898;6.054;2023-11-21T01:32:43;99655.66;;;7.95;100.00
59825;BME280;45703;50.898;6.054;2023-11-21T01:35:10;99657.88;;;7.98;100.00
59825;BME280;45703;50.898;6.054;2023-11-21T01:37:37;99670.13;;;7.99;100.00
59825;BME280;45703;50.898;6.054;2023-11-21T01:40:03;99659.53;;;7.92;100.00
59825;BME280;45703;50.898;6.054;2023-11-21T01:42:36;99667.31;;;7.94;100.00
59825;BME280;45703;50.898;6.054;2023-11-21T01:45:01;99664.66;;;7.94;100.00
59825;BME280;45703;50.898;6.054;2023-11-21T01:47:30;99659.09;;;7.95;100.00
59825;BME280;45703;50.898;6.054;2023-11-21T01:49:56;99658.06;;;7.96;100.00
59825;BME280;45703;50.898;6.054;2023-11-21T01:52:22;99663.78;;;8.00;100.00
59825;BME280;45703;50.898;6.054;2023-11-21T01:54:47;99666.66;;;7.98;100.00
59825;BME280;45703;50.898;6.054;2023-11-21T01:57:13;99661.13;;;8.00;100.00
59825;BME280;45703;50.898;6.054;2023-11-21T01:59:41;99660.88;;;8.01;100.00
59825;BME280;45703;50.898;6.054;2023-11-21T02:02:07;99670.72;;;8.01;100.00
59825;BME280;45703;50.898;6.054;2023-11-21T02:04:33;99663.19;;;7.98;100.00
59825;BME280;45703;50.898;6.054;2023-11-21T02:06:59;99666.78;;;8.03;100.00
59825;BME280;45703;50.898;6.054;2023-11-21T02:09:28;99668.66;;;8.03;100.00
59825;BME280;45703;50.898;6.054;2023-11-21T02:11:58;99680.53;;;8.00;100.00
59825;BME280;45703;50.898;6.054;2023-11-21T02:14:27;99671.75;;;8.00;100.00
59825;BME280;45703;50.898;6.054;2023-11-21T02:16:53;99682.16;;;8.01;100.00
59825;BME280;45703;50.898;6.054;2023-11-21T02:19:20;99682.97;;;8.02;100.00
59825;BME280;45703;50.898;6.054;2023-11-21T02:21:51;99687.69;;;8.00;100.00
59825;BME280;45703;50.898;6.054;2023-11-21T02:24:23;99680.91;;;8.04;100.00
59825;BME280;45703;50.898;6.054;2023-11-21T02:26:50;99689.09;;;8.02;100.00
59825;BME280;45703;50.898;6.054;2023-11-21T02:29:19;99692.59;;;8.03;100.00
59825;BME280;45703;50.898;6.054;2023-11-21T02:31:47;99689.53;;;7.99;100.00
59825;BME280;45703;50.898;6.054;2023-11-21T02:34:17;99693.63;;;8.02;100.00
59825;BME280;45703;50.898;6.054;2023-11-21T02:36:43;99692.44;;;7.98;100.00
59825;BME280;45703;50.898;6.054;2023-11-21T02:39:10;99694.22;;;8.04;100.00
59825;BME280;45703;50.898;6.054;2023-11-21T02:41:38;99692.78;;;8.01;100.00
59825;BME280;45703;50.898;6.054;2023-11-21T02:44:05;99690.94;;;8.02;100.00
59825;BME280;45703;50.898;6.054;2023-11-21T02:46:32;99693.78;;;8.07;100.00
59825;BME280;45703;50.898;6.054;2023-11-21T02:49:05;99697.47;;;8.06;100.00
59825;BME280;45703;50.898;6.054;2023-11-21T02:51:35;99683.56;;;8.04;100.00
59825;BME280;45703;50.898;6.054;2023-11-21T02:54:00;99693.19;;;8.05;100.00
59825;BME280;45703;50.898;6.054;2023-11-21T02:56:28;99695.16;;;8.09;100.00
59825;BME280;45703;50.898;6.054;2023-11-21T02:58:57;99692.16;;;8.06;100.00
59825;BME280;45703;50.898;6.054;2023-11-21T03:01:23;99695.59;;;8.06;100.00
59825;BME280;45703;50.898;6.054;2023-11-21T03:03:52;99701.75;;;8.07;100.00
59825;BME280;45703;50.898;6.054;2023-11-21T03:06:21;99692.59;;;8.03;100.00
59825;BME280;45703;50.898;6.054;2023-11-21T03:08:47;99699.09;;;8.07;100.00
59825;BME280;45703;50.898;6.054;2023-11-21T03:11:13;99709.28;;;8.10;100.00
59825;BME280;45703;50.898;6.054;2023-11-21T03:13:42;99688.94;;;7.97;100.00
59825;BME280;45703;50.898;6.054;2023-11-21T03:16:11;99711.19;;;8.03;100.00
59825;BME280;45703;50.898;6.054;2023-11-21T03:18:37;99707.06;;;8.07;100.00
59825;BME280;45703;50.898;6.054;2023-11-21T03:21:04;99715.78;;;8.14;100.00
59825;BME280;45703;50.898;6.054;2023-11-21T03:23:30;99715.19;;;8.12;100.00
59825;BME280;45703;50.898;6.054;2023-11-21T03:25:55;99716.00;;;8.12;100.00
59825;BME280;45703;50.898;6.054;2023-11-21T03:28:20;99717.84;;;8.12;100.00
59825;BME280;45703;50.898;6.054;2023-11-21T03:30:46;99721.69;;;8.16;100.00
59825;BME280;45703;50.898;6.054;2023-11-21T03:33:11;99729.28;;;8.19;100.00
59825;BME280;45703;50.898;6.054;2023-11-21T03:35:38;99739.28;;;8.17;100.00
59825;BME280;45703;50.898;6.054;2023-11-21T03:38:04;99740.13;;;8.17;100.00
59825;BME280;45703;50.898;6.054;2023-11-21T03:40:29;99742.13;;;8.22;100.00
59825;BME280;45703;50.898;6.054;2023-11-21T03:42:56;99739.28;;;8.17;100.00
59825;BME280;45703;50.898;6.054;2023-11-21T03:45:22;99744.59;;;8.17;100.00
59825;BME280;45703;50.898;6.054;2023-11-21T03:47:48;99754.81;;;8.20;100.00
59825;BME280;45703;50.898;6.054;2023-11-21T03:50:13;99755.41;;;8.22;100.00
59825;BME280;45703;50.898;6.054;2023-11-21T03:52:38;99755.41;;;8.22;100.00
59825;BME280;45703;50.898;6.054;2023-11-21T03:55:04;99759.94;;;8.21;100.00
59825;BME280;45703;50.898;6.054;2023-11-21T03:57:29;99755.66;;;8.14;100.00
59825;BME280;45703;50.898;6.054;2023-11-21T03:59:55;99756.03;;;8.24;100.00
59825;BME280;45703;50.898;6.054;2023-11-21T04:02:20;99742.56;;;8.19;100.00
59825;BME280;45703;50.898;6.054;2023-11-21T04:04:46;99757.28;;;8.21;100.00
59825;BME280;45703;50.898;6.054;2023-11-21T04:07:11;99755.84;;;8.19;100.00
59825;BME280;45703;50.898;6.054;2023-11-21T04:09:39;99756.09;;;8.17;100.00
59825;BME280;45703;50.898;6.054;2023-11-21T04:12:05;99758.91;;;8.16;100.00
59825;BME280;45703;50.898;6.054;2023-11-21T04:14:30;99760.16;;;8.13;100.00
59825;BME280;45703;50.898;6.054;2023-11-21T04:16:56;99760.16;;;8.13;100.00
59825;BME280;45703;50.898;6.054;2023-11-21T04:19:22;99763.03;;;8.12;100.00
59825;BME280;45703;50.898;6.054;2023-11-21T04:21:47;99766.75;;;8.11;100.00
59825;BME280;45703;50.898;6.054;2023-11-21T04:24:13;99765.31;;;8.08;100.00
59825;BME280;45703;50.898;6.054;2023-11-21T04:26:38;99765.09;;;8.10;100.00
59825;BME280;45703;50.898;6.054;2023-11-21T04:29:03;99774.28;;;8.14;100.00
59825;BME280;45703;50.898;6.054;2023-11-21T04:31:30;99768.78;;;8.09;100.00
59825;BME280;45703;50.898;6.054;2023-11-21T04:33:55;99771.63;;;8.14;100.00
59825;BME280;45703;50.898;6.054;2023-11-21T04:36:21;99782.25;;;8.14;100.00
59825;BME280;45703;50.898;6.054;2023-11-21T04:38:46;99768.38;;;8.12;100.00
59825;BME280;45703;50.898;6.054;2023-11-21T04:41:11;99788.97;;;8.16;100.00
59825;BME280;45703;50.898;6.054;2023-11-21T04:43:37;99789.78;;;8.17;100.00
59825;BME280;45703;50.898;6.054;2023-11-21T04:46:02;99781.81;;;8.17;100.00
59825;BME280;45703;50.898;6.054;2023-11-21T04:48:28;99782.44;;;8.19;100.00
59825;BME280;45703;50.898;6.054;2023-11-21T04:50:53;99788.59;;;8.19;100.00
59825;BME280;45703;50.898;6.054;2023-11-21T04:53:18;99780.63;;;8.19;100.00
59825;BME280;45703;50.898;6.054;2023-11-21T04:55:45;99783.47;;;8.18;100.00
59825;BME280;45703;50.898;6.054;2023-11-21T04:58:11;99789.38;;;8.20;100.00
59825;BME280;45703;50.898;6.054;2023-11-21T05:00:37;99782.44;;;8.19;100.00
59825;BME280;45703;50.898;6.054;2023-11-21T05:03:03;99793.25;;;8.24;100.00
59825;BME280;45703;50.898;6.054;2023-11-21T05:05:29;99778.16;;;8.18;100.00
59825;BME280;45703;50.898;6.054;2023-11-21T05:07:57;99790.00;;;8.22;100.00
59825;BME280;45703;50.898;6.054;2023-11-21T05:10:23;99793.69;;;8.21;100.00
59825;BME280;45703;50.898;6.054;2023-11-21T05:12:48;99797.16;;;8.21;100.00
59825;BME280;45703;50.898;6.054;2023-11-21T05:15:15;99795.09;;;8.17;100.00
59825;BME280;45703;50.898;6.054;2023-11-21T05:17:42;99794.72;;;8.20;100.00
59825;BME280;45703;50.898;6.054;2023-11-21T05:20:10;99797.16;;;8.21;100.00
59825;BME280;45703;50.898;6.054;2023-11-21T05:22:36;99805.75;;;8.23;100.00
59825;BME280;45703;50.898;6.054;2023-11-21T05:25:03;99814.94;;;8.21;100.00
59825;BME280;45703;50.898;6.054;2023-11-21T05:27:29;99828.84;;;8.23;100.00
59825;BME280;45703;50.898;6.054;2023-11-21T05:29:56;99812.09;;;8.16;100.00
59825;BME280;45703;50.898;6.054;2023-11-21T05:32:22;99828.47;;;8.19;100.00
59825;BME280;45703;50.898;6.054;2023-11-21T05:34:48;99834.16;;;8.23;100.00
59825;BME280;45703;50.898;6.054;2023-11-21T05:37:14;99835.78;;;8.24;100.00
59825;BME280;45703;50.898;6.054;2023-11-21T05:39:39;99837.84;;;8.22;100.00
59825;BME280;45703;50.898;6.054;2023-11-21T05:42:05;99830.69;;;8.16;100.00
59825;BME280;45703;50.898;6.054;2023-11-21T05:44:31;99836.22;;;8.21;100.00
59825;BME280;45703;50.898;6.054;2023-11-21T05:46:57;99847.69;;;8.21;100.00
59825;BME280;45703;50.898;6.054;2023-11-21T05:49:24;99854.41;;;8.24;100.00
59825;BME280;45703;50.898;6.054;2023-11-21T05:51:52;99851.16;;;8.22;100.00
59825;BME280;45703;50.898;6.054;2023-11-21T05:54:19;99850.13;;;8.23;100.00
59825;BME280;45703;50.898;6.054;2023-11-21T05:56:44;99848.47;;;8.22;100.00
59825;BME280;45703;50.898;6.054;2023-11-21T05:59:10;99854.19;;;8.25;100.00
59825;BME280;45703;50.898;6.054;2023-11-21T06:01:35;99867.50;;;8.25;100.00
59825;BME280;45703;50.898;6.054;2023-11-21T06:04:04;99872.59;;;8.27;100.00
59825;BME280;45703;50.898;6.054;2023-11-21T06:06:29;99876.28;;;8.26;100.00
59825;BME280;45703;50.898;6.054;2023-11-21T06:08:56;99869.75;;;8.22;100.00
59825;BME280;45703;50.898;6.054;2023-11-21T06:11:21;99883.81;;;8.29;100.00
59825;BME280;45703;50.898;6.054;2023-11-21T06:13:47;99877.91;;;8.27;100.00
59825;BME280;45703;50.898;6.054;2023-11-21T06:16:13;99888.09;;;8.30;100.00
59825;BME280;45703;50.898;6.054;2023-11-21T06:18:41;99887.66;;;8.33;100.00
59825;BME280;45703;50.898;6.054;2023-11-21T06:21:09;99887.50;;;8.28;100.00
59825;BME280;45703;50.898;6.054;2023-11-21T06:23:35;99888.72;;;8.32;100.00
59825;BME280;45703;50.898;6.054;2023-11-21T06:26:00;99892.19;;;8.32;100.00
59825;BME280;45703;50.898;6.054;2023-11-21T06:28:26;99893.59;;;8.35;100.00
59825;BME280;45703;50.898;6.054;2023-11-21T06:30:51;99893.81;;;8.33;100.00
59825;BME280;45703;50.898;6.054;2023-11-21T06:33:18;99897.69;;;8.37;100.00
59825;BME280;45703;50.898;6.054;2023-11-21T06:35:43;99901.97;;;8.38;100.00
59825;BME280;45703;50.898;6.054;2023-11-21T06:38:10;99897.88;;;8.36;100.00
59825;BME280;45703;50.898;6.054;2023-11-21T06:40:35;99900.53;;;8.36;100.00
59825;BME280;45703;50.898;6.054;2023-11-21T06:43:01;99910.16;;;8.37;100.00
59825;BME280;45703;50.898;6.054;2023-11-21T06:45:26;99908.09;;;8.39;100.00
59825;BME280;45703;50.898;6.054;2023-11-21T06:47:52;99913.59;;;8.44;100.00
59825;BME280;45703;50.898;6.054;2023-11-21T06:50:17;99915.25;;;8.45;100.00
59825;BME280;45703;50.898;6.054;2023-11-21T06:52:43;99924.84;;;8.46;100.00
59825;BME280;45703;50.898;6.054;2023-11-21T06:55:08;99922.38;;;8.44;100.00
59825;BME280;45703;50.898;6.054;2023-11-21T06:57:35;99916.28;;;8.44;100.00
59825;BME280;45703;50.898;6.054;2023-11-21T07:00:00;99926.47;;;8.47;100.00
59825;BME280;45703;50.898;6.054;2023-11-21T07:02:26;99938.75;;;8.48;100.00
59825;BME280;45703;50.898;6.054;2023-11-21T07:04:51;99931.19;;;8.45;100.00
59825;BME280;45703;50.898;6.054;2023-11-21T07:07:18;99936.72;;;8.43;100.00
59825;BME280;45703;50.898;6.054;2023-11-21T07:09:43;99939.19;;;8.45;100.00
59825;BME280;45703;50.898;6.054;2023-11-21T07:12:09;99943.66;;;8.44;100.00
59825;BME280;45703;50.898;6.054;2023-11-21T07:14:34;99940.81;;;8.46;100.00
59825;BME280;45703;50.898;6.054;2023-11-21T07:17:00;99952.03;;;8.48;100.00
59825;BME280;45703;50.898;6.054;2023-11-21T07:19:25;99945.91;;;8.47;100.00
59825;BME280;45703;50.898;6.054;2023-11-21T07:21:51;99964.50;;;8.54;100.00
59825;BME280;45703;50.898;6.054;2023-11-21T07:24:16;99958.75;;;8.50;100.00
59825;BME280;45703;50.898;6.054;2023-11-21T07:26:42;99974.28;;;8.53;100.00
59825;BME280;45703;50.898;6.054;2023-11-21T07:29:08;99972.66;;;8.52;100.00
59825;BME280;45703;50.898;6.054;2023-11-21T07:31:33;99970.25;;;8.51;100.00
59825;BME280;45703;50.898;6.054;2023-11-21T07:34:02;99973.50;;;8.53;100.00
59825;BME280;45703;50.898;6.054;2023-11-21T07:36:28;99981.66;;;8.57;100.00
59825;BME280;45703;50.898;6.054;2023-11-21T07:38:53;99980.03;;;8.57;100.00
59825;BME280;45703;50.898;6.054;2023-11-21T07:41:19;99988.59;;;8.58;100.00
59825;BME280;45703;50.898;6.054;2023-11-21T07:43:45;99992.91;;;8.59;100.00
59825;BME280;45703;50.898;6.054;2023-11-21T07:46:11;99973.94;;;8.50;100.00
59825;BME280;45703;50.898;6.054;2023-11-21T07:48:42;99997.13;;;8.67;100.00
59825;BME280;45703;50.898;6.054;2023-11-21T07:51:08;99990.16;;;8.66;100.00
59825;BME280;45703;50.898;6.054;2023-11-21T07:53:34;100002.41;;;8.73;100.00
59825;BME280;45703;50.898;6.054;2023-11-21T07:56:04;100000.34;;;8.75;100.00
59825;BME280;45703;50.898;6.054;2023-11-21T07:58:32;100006.66;;;8.81;100.00
59825;BME280;45703;50.898;6.054;2023-11-21T08:00:59;99994.66;;;8.72;100.00
59825;BME280;45703;50.898;6.054;2023-11-21T08:03:25;100018.53;;;8.85;100.00
59825;BME280;45703;50.898;6.054;2023-11-21T08:05:52;100020.75;;;8.88;100.00
59825;BME280;45703;50.898;6.054;2023-11-21T08:08:17;100021.34;;;8.90;100.00
59825;BME280;45703;50.898;6.054;2023-11-21T08:10:44;100029.09;;;8.91;100.00
59825;BME280;45703;50.898;6.054;2023-11-21T08:13:19;100034.22;;;8.93;100.00
59825;BME280;45703;50.898;6.054;2023-11-21T08:15:45;100041.56;;;8.97;100.00
59825;BME280;45703;50.898;6.054;2023-11-21T08:18:11;100041.56;;;8.97;100.00
59825;BME280;45703;50.898;6.054;2023-11-21T08:20:38;100044.59;;;9.01;100.00
59825;BME280;45703;50.898;6.054;2023-11-21T08:23:05;100051.38;;;9.03;100.00
59825;BME280;45703;50.898;6.054;2023-11-21T08:25:31;100039.09;;;9.02;100.00
59825;BME280;45703;50.898;6.054;2023-11-21T08:27:57;100040.13;;;9.01;100.00
59825;BME280;45703;50.898;6.054;2023-11-21T08:30:22;100051.53;;;9.08;100.00
59825;BME280;45703;50.898;6.054;2023-11-21T08:32:51;100037.63;;;9.06;100.00
59825;BME280;45703;50.898;6.054;2023-11-21T08:35:18;100060.84;;;9.24;100.00
59825;BME280;45703;50.898;6.054;2023-11-21T08:37:44;100066.34;;;9.29;100.00
59825;BME280;45703;50.898;6.054;2023-11-21T08:40:10;100054.84;;;9.28;100.00
59825;BME280;45703;50.898;6.054;2023-11-21T08:42:37;100062.56;;;9.36;100.00
59825;BME280;45703;50.898;6.054;2023-11-21T08:45:04;100064.19;;;9.37;100.00
59825;BME280;45703;50.898;6.054;2023-11-21T08:47:32;100067.88;;;9.36;100.00
59825;BME280;45703;50.898;6.054;2023-11-21T08:49:57;100064.19;;;9.37;100.00
59825;BME280;45703;50.898;6.054;2023-11-21T08:52:23;100064.44;;;9.36;100.00
59825;BME280;45703;50.898;6.054;2023-11-21T08:54:49;100079.94;;;9.45;100.00
59825;BME280;45703;50.898;6.054;2023-11-21T08:57:22;100078.91;;;9.46;100.00
59825;BME280;45703;50.898;6.054;2023-11-21T08:59:47;100069.47;;;9.44;100.00
59825;BME280;45703;50.898;6.054;2023-11-21T09:02:12;100087.84;;;9.52;100.00
59825;BME280;45703;50.898;6.054;2023-11-21T09:04:38;100075.63;;;9.44;100.00
59825;BME280;45703;50.898;6.054;2023-11-21T09:07:06;100076.66;;;9.43;100.00
59825;BME280;45703;50.898;6.054;2023-11-21T09:09:31;100092.38;;;9.51;100.00
59825;BME280;45703;50.898;6.054;2023-11-21T09:11:56;100095.06;;;9.51;100.00
59825;BME280;45703;50.898;6.054;2023-11-21T09:14:22;100101.19;;;9.52;100.00
59825;BME280;45703;50.898;6.054;2023-11-21T09:16:47;100105.91;;;9.50;100.00
59825;BME280;45703;50.898;6.054;2023-11-21T09:19:13;100108.38;;;9.51;100.00
59825;BME280;45703;50.898;6.054;2023-11-21T09:21:39;100114.91;;;9.55;100.00
59825;BME280;45703;50.898;6.054;2023-11-21T09:24:05;100108.38;;;9.51;100.00
59825;BME280;45703;50.898;6.054;2023-11-21T09:26:30;100107.94;;;9.54;100.00
59825;BME280;45703;50.898;6.054;2023-11-21T09:28:58;100119.34;;;9.61;100.00
59825;BME280;45703;50.898;6.054;2023-11-21T09:31:23;100123.41;;;9.64;100.00
59825;BME280;45703;50.898;6.054;2023-11-21T09:33:49;100118.09;;;9.64;100.00
59825;BME280;45703;50.898;6.054;2023-11-21T09:36:14;100120.50;;;9.72;100.00
59825;BME280;45703;50.898;6.054;2023-11-21T09:38:41;100130.28;;;9.78;100.00
59825;BME280;45703;50.898;6.054;2023-11-21T09:41:14;100135.97;;;9.81;100.00
59825;BME280;45703;50.898;6.054;2023-11-21T09:43:44;100135.09;;;9.87;100.00
59825;BME280;45703;50.898;6.054;2023-11-21T09:46:12;100133.47;;;9.86;100.00
59825;BME280;45703;50.898;6.054;2023-11-21T09:48:45;100140.38;;;9.94;100.00
59825;BME280;45703;50.898;6.054;2023-11-21T09:51:12;100136.69;;;9.95;100.00
59825;BME280;45703;50.898;6.054;2023-11-21T09:53:38;100138.13;;;9.97;100.00
59825;BME280;45703;50.898;6.054;2023-11-21T09:56:04;100126.41;;;9.98;100.00
59825;BME280;45703;50.898;6.054;2023-11-21T09:58:31;100118.00;;;10.01;100.00
59825;BME280;45703;50.898;6.054;2023-11-21T10:00:59;100132.22;;;10.13;100.00
59825;BME280;45703;50.898;6.054;2023-11-21T10:03:28;100137.72;;;10.18;100.00
59825;BME280;45703;50.898;6.054;2023-11-21T10:05:53;100133.97;;;10.25;100.00
59825;BME280;45703;50.898;6.054;2023-11-21T10:08:22;100135.16;;;10.29;100.00
59825;BME280;45703;50.898;6.054;2023-11-21T10:10:51;100152.25;;;10.40;100.00
59825;BME280;45703;50.898;6.054;2023-11-21T10:13:18;100149.72;;;10.45;100.00
59825;BME280;45703;50.898;6.054;2023-11-21T10:15:49;100155.06;;;10.45;100.00
59825;BME280;45703;50.898;6.054;2023-11-21T10:18:15;100154.25;;;10.44;100.00
59825;BME280;45703;50.898;6.054;2023-11-21T10:20:41;100153.22;;;10.45;100.00
59825;BME280;45703;50.898;6.054;2023-11-21T10:23:08;100149.72;;;10.45;100.00
59825;BME280;45703;50.898;6.054;2023-11-21T10:25:36;100163.06;;;10.45;100.00
59825;BME280;45703;50.898;6.054;2023-11-21T10:28:03;100162.47;;;10.43;100.00
59825;BME280;45703;50.898;6.054;2023-11-21T10:30:35;100166.63;;;10.39;100.00
59825;BME280;45703;50.898;6.054;2023-11-21T10:33:05;100167.81;;;10.43;100.00
59825;BME280;45703;50.898;6.054;2023-11-21T10:35:48;100167.38;;;10.46;100.00
59825;BME280;45703;50.898;6.054;2023-11-21T10:38:17;100161.44;;;10.44;100.00
59825;BME280;45703;50.898;6.054;2023-11-21T10:40:44;100168.00;;;10.48;100.00
59825;BME280;45703;50.898;6.054;2023-11-21T10:43:10;100164.28;;;10.49;100.00
59825;BME280;45703;50.898;6.054;2023-11-21T10:45:39;100160.47;;;10.56;100.00
59825;BME280;45703;50.898;6.054;2023-11-21T10:48:06;100149.47;;;10.53;100.00
59825;BME280;45703;50.898;6.054;2023-11-21T10:50:37;100158.66;;;10.57;100.00
59825;BME280;45703;50.898;6.054;2023-11-21T10:53:03;100158.84;;;10.55;100.00
59825;BME280;45703;50.898;6.054;2023-11-21T10:55:30;100155.59;;;10.53;100.00
59825;BME280;45703;50.898;6.054;2023-11-21T10:57:58;100160.34;;;10.51;100.00
59825;BME280;45703;50.898;6.054;2023-11-21T11:00:26;100162.22;;;10.51;100.00
59825;BME280;45703;50.898;6.054;2023-11-21T11:02:53;100168.13;;;10.53;100.00
59825;BME280;45703;50.898;6.054;2023-11-21T11:05:22;100159.09;;;10.54;100.00
59825;BME280;45703;50.898;6.054;2023-11-21T11:10:27;100173.78;;;10.63;100.00
59825;BME280;45703;50.898;6.054;2023-11-21T11:12:55;100170.66;;;10.66;100.00
59825;BME280;45703;50.898;6.054;2023-11-21T11:15:21;100171.84;;;10.70;100.00
59825;BME280;45703;50.898;6.054;2023-11-21T11:17:47;100164.88;;;10.69;100.00
59825;BME280;45703;50.898;6.054;2023-11-21T11:20:14;100177.19;;;10.70;100.00
59825;BME280;45703;50.898;6.054;2023-11-21T11:25:57;100185.97;;;10.70;100.00
59825;BME280;45703;50.898;6.054;2023-11-21T11:28:32;100175.75;;;10.67;100.00
59825;BME280;45703;50.898;6.054;2023-11-21T11:31:14;100190.97;;;10.67;100.00
59825;BME280;45703;50.898;6.054;2023-11-21T11:34:00;100181.78;;;10.63;100.00
59825;BME280;45703;50.898;6.054;2023-11-21T11:39:30;100173.53;;;10.64;100.00
59825;BME280;45703;50.898;6.054;2023-11-21T11:41:57;100180.28;;;10.67;100.00
59825;BME280;45703;50.898;6.054;2023-11-21T11:47:15;100178.50;;;10.79;100.00
59825;BME280;45703;50.898;6.054;2023-11-21T11:50:09;100179.81;;;10.88;100.00
59825;BME280;45703;50.898;6.054;2023-11-21T11:52:55;100178.91;;;10.94;100.00
59825;BME280;45703;50.898;6.054;2023-11-21T11:55:23;100173.75;;;10.99;100.00
59825;BME280;45703;50.898;6.054;2023-11-21T11:57:51;100173.06;;;11.03;100.00
59825;BME280;45703;50.898;6.054;2023-11-21T12:00:18;100178.19;;;11.05;100.00
59825;BME280;45703;50.898;6.054;2023-11-21T12:03:08;100183.22;;;11.13;100.00
59825;BME280;45703;50.898;6.054;2023-11-21T12:05:35;100191.56;;;11.16;100.00
59825;BME280;45703;50.898;6.054;2023-11-21T12:08:05;100193.59;;;11.21;100.00
59825;BME280;45703;50.898;6.054;2023-11-21T12:10:33;100198.56;;;11.17;100.00
59825;BME280;45703;50.898;6.054;2023-11-21T12:13:05;100202.19;;;11.23;100.00
59825;BME280;45703;50.898;6.054;2023-11-21T12:15:35;100192.84;;;11.14;100.00
59825;BME280;45703;50.898;6.054;2023-11-21T12:18:01;100203.31;;;11.15;100.00
59825;BME280;45703;50.898;6.054;2023-11-21T12:20:27;100211.88;;;11.06;100.00
59825;BME280;45703;50.898;6.054;2023-11-21T12:22:58;100204.75;;;11.00;100.00
59825;BME280;45703;50.898;6.054;2023-11-21T12:25:30;100208.69;;;10.97;100.00
59825;BME280;45703;50.898;6.054;2023-11-21T12:27:59;100210.97;;;10.94;100.00
59825;BME280;45703;50.898;6.054;2023-11-21T12:30:29;100215.00;;;10.85;100.00
59825;BME280;45703;50.898;6.054;2023-11-21T12:32:57;100223.84;;;10.85;100.00
59825;BME280;45703;50.898;6.054;2023-11-21T12:35:29;100224.94;;;10.78;100.00
59825;BME280;45703;50.898;6.054;2023-11-21T12:37:55;100229.34;;;10.72;100.00
59825;BME280;45703;50.898;6.054;2023-11-21T12:40:22;100233.41;;;10.75;100.00
59825;BME280;45703;50.898;6.054;2023-11-21T12:42:51;100229.53;;;10.71;100.00
59825;BME280;45703;50.898;6.054;2023-11-21T12:45:19;100242.44;;;10.74;100.00
59825;BME280;45703;50.898;6.054;2023-11-21T12:47:47;100229.53;;;10.71;100.00
59825;BME280;45703;50.898;6.054;2023-11-21T12:50:19;100240.75;;;10.79;100.00
59825;BME280;45703;50.898;6.054;2023-11-21T12:52:50;100240.66;;;10.86;100.00
59825;BME280;45703;50.898;6.054;2023-11-21T12:55:20;100238.72;;;10.93;100.00
59825;BME280;45703;50.898;6.054;2023-11-21T12:57:53;100239.09;;;10.96;100.00
59825;BME280;45703;50.898;6.054;2023-11-21T13:00:22;100243.19;;;10.99;100.00
59825;BME280;45703;50.898;6.054;2023-11-21T13:02:54;100237.63;;;11.00;100.00
59825;BME280;45703;50.898;6.054;2023-11-21T13:05:30;100242.16;;;11.00;100.00